Terminal Aerodrome Forecast
Issued by NWS

Home | Current Version | Previous Version | Graphics & Text | Print | Product List | Glossary On
Versions: 1 2 3 4 5 6 7 8 9 10 11 12 13 14 15 16
000
FTUS43 KBIS 270528
TAFJMS
TAF
KJMS 270528Z 2706/2806 17005KT P6SM SCT035 SCT050
      TEMPO 2706/2710 SCT025 BKN035 BKN070
     FM271000 16005KT P6SM VCTS SCT025 SCT035 BKN070CB
      TEMPO 2710/2714 SCT025 BKN035 BKN050CB
     FM271500 20006KT P6SM SCT040 BKN090
     FM271800 19009KT P6SM SCT050
     FM272100 22012KT P6SM SCT090
     FM280300 15005KT P6SM FEW250=

USA.gov is the U.S. government's official web portal to all federal, state and local government web resources and services.